Time;durP1;ratioP1;P1;durP2;ratioP2;P2;SDS_P1;SDS_P2;PMS_P1;PMS_P2;Temp;Humidity;BMP_temperature;BMP_pressure;BME280_temperature;BME280_humidity;BME280_pressure;Samples;Min_cycle;Max_cycle;Signal;HPM_P1;HPM_P2
2022/11/24 00:00:09;;;;;;;16.73;9.30;;;;;;;7.67;76.78;100484.78;4966400;28;20337;-77
2022/11/24 00:02:39;;;;;;;15.13;9.77;;;;;;;7.68;76.80;100489.94;4976967;28;20162;-79
2022/11/24 00:05:12;;;;;;;17.23;9.63;;;;;;;6.98;77.54;100385.38;5006886;28;20065;-79
2022/11/24 00:07:45;;;;;;;12.48;8.75;;;;;;;7.53;77.86;100490.31;4986756;28;20050;-80
2022/11/24 00:10:14;;;;;;;19.52;8.93;;;;;;;7.55;78.02;100497.16;4984237;28;20053;-80
2022/11/24 00:12:47;;;;;;;19.55;8.40;;;;;;;7.06;78.41;100425.22;4994615;28;20037;-76
2022/11/24 00:15:17;;;;;;;14.70;8.73;;;;;;;7.37;78.53;100459.81;5004926;28;20053;-80
2022/11/24 00:17:46;;;;;;;15.55;8.70;;;;;;;7.59;78.46;100492.47;5004728;28;20509;-80
2022/11/24 00:20:20;;;;;;;14.25;8.43;;;;;;;7.32;78.50;100454.03;5005675;28;20634;-78
2022/11/24 00:23:00;;;;;;;14.35;8.05;;;;;;;7.06;78.49;100425.22;5004357;28;20057;-78
2022/11/24 00:25:29;;;;;;;16.58;9.20;;;;;;;7.43;79.02;100491.03;5004295;28;20221;-78
2022/11/24 00:28:00;;;;;;;18.88;10.55;;;;;;;7.25;78.66;100473.97;5004253;28;20050;-79
2022/11/24 00:30:30;;;;;;;15.98;9.90;;;;;;;7.31;78.85;100491.97;5003301;28;20444;-79
2022/11/24 00:33:02;;;;;;;14.85;9.25;;;;;;;7.42;79.02;100518.38;5019197;28;20390;-78
2022/11/24 00:35:31;;;;;;;16.77;9.13;;;;;;;7.50;78.70;100533.66;5005664;28;20437;-78
2022/11/24 00:38:10;;;;;;;12.85;9.77;;;;;;;6.18;78.76;100320.22;5023849;28;20602;-78
2022/11/24 00:40:50;;;;;;;17.20;9.23;;;;;;;7.54;78.70;100534.25;5024798;28;20353;-79
2022/11/24 00:43:32;;;;;;;17.25;9.57;;;;;;;7.57;79.00;100540.13;5023923;28;20355;-79
2022/11/24 00:46:08;;;;;;;14.10;8.95;;;;;;;7.61;78.93;100543.41;5025915;28;20787;-78
2022/11/24 00:48:43;;;;;;;12.38;7.70;;;;;;;7.54;78.62;100534.25;5025308;28;20084;-80
2022/11/24 00:51:20;;;;;;;14.07;6.68;;;;;;;7.66;77.80;100549.16;5012149;28;20231;-79
2022/11/24 00:53:56;;;;;;;14.27;7.25;;;;;;;7.74;76.90;100551.19;5007124;28;20147;-78
2022/11/24 00:56:26;;;;;;;13.10;6.70;;;;;;;7.70;76.20;100534.75;5006561;28;20053;-80
2022/11/24 00:59:13;;;;;;;12.35;6.75;;;;;;;7.88;75.49;100553.63;4988170;28;20060;-80
2022/11/24 01:01:41;;;;;;;11.35;6.78;;;;;;;7.90;75.01;100557.81;5003638;28;20534;-80
2022/11/24 01:04:11;;;;;;;13.43;6.63;;;;;;;7.66;75.07;100512.16;5004453;28;20061;-78
2022/11/24 01:06:50;;;;;;;7.53;5.90;;;;;;;7.84;74.18;100541.59;4988993;28;20794;-77
2022/11/24 01:09:17;;;;;;;10.40;5.65;;;;;;;7.85;73.69;100543.28;4986960;28;20519;-78
2022/11/24 01:12:04;;;;;;;11.60;6.32;;;;;;;7.92;73.51;100544.50;5006566;28;20563;-81
2022/11/24 01:14:41;;;;;;;13.15;6.45;;;;;;;7.93;73.63;100549.63;4989558;28;20445;-77
2022/11/24 01:17:08;;;;;;;9.02;6.72;;;;;;;7.87;74.08;100539.56;4988167;28;20481;-78
2022/11/24 01:19:35;;;;;;;8.93;6.53;;;;;;;7.82;74.89;100533.81;4988590;28;20144;-78
2022/11/24 01:22:06;;;;;;;14.88;6.45;;;;;;;7.87;74.49;100542.22;4985775;28;20072;-78
2022/11/24 01:24:38;;;;;;;10.40;5.93;;;;;;;7.92;74.34;100561.19;4985068;28;20056;-79
2022/11/24 01:27:16;;;;;;;9.02;6.28;;;;;;;6.28;74.70;100295.81;5002319;28;20235;-80
2022/11/24 01:29:45;;;;;;;8.85;6.13;;;;;;;7.88;74.70;100570.31;5004657;28;20053;-80
2022/11/24 01:32:18;;;;;;;10.60;7.25;;;;;;;7.83;74.63;100572.47;4995322;28;20402;-78
2022/11/24 01:34:46;;;;;;;12.27;6.90;;;;;;;7.41;73.87;100513.25;5006314;28;20141;-78
2022/11/24 01:37:13;;;;;;;12.27;6.85;;;;;;;7.82;74.67;100589.31;5003705;28;20948;-78
2022/11/24 01:39:40;;;;;;;11.18;5.95;;;;;;;7.77;74.82;100594.09;5004799;28;20057;-79
2022/11/24 01:42:13;;;;;;;18.23;6.75;;;;;;;7.69;74.47;100592.06;5023831;28;20348;-80
2022/11/24 01:44:47;;;;;;;11.70;6.60;;;;;;;7.75;75.34;100606.59;5006714;28;20053;-78
2022/11/24 01:47:46;;;;;;;12.25;6.82;;;;;;;7.58;75.09;100585.91;5005318;28;20060;-79
2022/11/24 01:50:16;;;;;;;12.90;6.90;;;;;;;7.17;75.39;100516.78;4972134;28;20442;-77
2022/11/24 01:52:49;;;;;;;13.15;6.53;;;;;;;7.25;75.32;100529.41;5010684;28;20093;-78
2022/11/24 01:55:32;;;;;;;13.77;6.40;;;;;;;7.66;75.50;100607.28;4983369;28;20057;-78
2022/11/24 01:58:31;;;;;;;10.35;6.60;;;;;;;7.14;75.16;100532.03;4966020;28;20439;-78
2022/11/24 02:01:09;;;;;;;11.48;6.85;;;;;;;7.66;76.07;100586.16;4965584;28;20493;-80
2022/11/24 02:03:45;;;;;;;9.13;6.03;;;;;;;7.80;75.09;100614.16;4982687;28;20072;-80
2022/11/24 02:06:23;;;;;;;8.60;5.78;;;;;;;7.71;74.35;100605.13;5001875;28;20591;-80
2022/11/24 02:08:59;;;;;;;11.43;6.50;;;;;;;7.82;74.28;100618.38;5003332;28;20049;-78
2022/11/24 02:11:35;;;;;;;9.05;5.28;;;;;;;7.76;73.93;100608.25;5005096;28;20111;-79
2022/11/24 02:14:08;;;;;;;8.02;5.25;;;;;;;7.91;72.01;100622.97;4991270;28;20592;-79
2022/11/24 02:16:36;;;;;;;9.77;5.45;;;;;;;7.67;71.67;100593.09;4995710;28;20913;-80
2022/11/24 02:19:13;;;;;;;9.65;5.38;;;;;;;7.93;71.34;100626.28;5018568;28;20829;-79
2022/11/24 02:21:41;;;;;;;7.72;5.03;;;;;;;8.02;72.19;100645.06;4988848;28;20289;-79
2022/11/24 02:24:28;;;;;;;17.08;5.18;;;;;;;8.34;72.72;100642.53;4984091;28;20049;-80
2022/11/24 02:26:56;;;;;;;9.50;4.65;;;;;;;8.42;70.56;100648.09;5001798;28;20626;-78
2022/11/24 02:29:23;;;;;;;11.07;4.95;;;;;;;8.53;70.25;100652.56;4984735;28;20583;-78
2022/11/24 02:31:56;;;;;;;7.43;4.68;;;;;;;8.33;69.06;100617.91;5008256;28;20368;-79
2022/11/24 02:34:23;;;;;;;7.53;4.55;;;;;;;8.58;67.91;100660.97;5004250;28;20049;-78
2022/11/24 02:36:50;;;;;;;7.65;5.03;;;;;;;8.29;67.65;100621.75;5003465;28;20079;-78
2022/11/24 02:39:17;;;;;;;7.28;4.90;;;;;;;8.47;67.57;100666.25;5003791;28;20052;-78
2022/11/24 02:41:59;;;;;;;9.82;4.82;;;;;;;8.42;67.73;100673.72;5003257;28;20045;-79
2022/11/24 02:44:31;;;;;;;4.90;4.00;;;;;;;8.33;67.65;100670.81;5022537;28;20135;-78
2022/11/24 02:47:08;;;;;;;7.00;4.53;;;;;;;8.31;67.18;100682.47;5003972;28;20570;-77
2022/11/24 02:49:35;;;;;;;7.32;4.85;;;;;;;8.17;68.25;100680.88;5023251;28;20052;-80
2022/11/24 02:52:06;;;;;;;10.25;5.28;;;;;;;8.06;68.75;100663.22;5003793;28;20175;-78
2022/11/24 02:54:32;;;;;;;9.25;4.93;;;;;;;8.09;69.49;100683.28;4983748;28;20638;-78
2022/11/24 02:57:02;;;;;;;11.02;5.35;;;;;;;7.92;69.65;100672.22;4965007;28;20046;-78
2022/11/24 02:59:29;;;;;;;9.65;5.32;;;;;;;8.01;69.95;100701.53;4979152;28;20050;-80
2022/11/24 03:01:58;;;;;;;8.38;4.75;;;;;;;7.84;69.92;100679.03;4983222;28;20048;-77
2022/11/24 03:04:30;;;;;;;7.72;5.00;;;;;;;7.93;69.90;100695.03;4959976;28;20259;-78
2022/11/24 03:07:00;;;;;;;10.05;5.43;;;;;;;8.02;69.50;100709.34;4956877;28;20067;-77
2022/11/24 03:09:33;;;;;;;7.03;5.10;;;;;;;7.49;69.95;100638.47;4957620;28;20419;-77
2022/11/24 03:12:13;;;;;;;15.63;6.10;;;;;;;7.93;69.27;100704.75;4950184;28;20054;-78
2022/11/24 03:14:40;;;;;;;5.88;5.13;;;;;;;7.66;69.60;100668.06;4957533;28;20058;-77
2022/11/24 03:17:08;;;;;;;11.05;6.65;;;;;;;7.89;69.93;100714.75;4955817;28;20510;-77
2022/11/24 03:19:35;;;;;;;7.55;5.80;;;;;;;7.82;70.46;100696.84;4957103;28;20051;-79
2022/11/24 03:22:06;;;;;;;10.63;6.57;;;;;;;8.13;70.55;100724.38;4954613;28;20057;-79
2022/11/24 03:24:33;;;;;;;8.35;5.75;;;;;;;7.57;69.50;100640.53;4958295;28;20068;-79
2022/11/24 03:27:04;;;;;;;10.88;6.53;;;;;;;7.96;68.77;100698.41;4959975;28;20120;-79
2022/11/24 03:29:38;;;;;;;10.25;6.95;;;;;;;8.16;67.73;100731.28;4957965;28;20418;-78
2022/11/24 03:32:07;;;;;;;11.15;6.57;;;;;;;7.88;67.80;100693.69;4966794;28;21104;-77
2022/11/24 03:34:39;;;;;;;9.63;6.82;;;;;;;8.11;66.51;100723.69;4979817;28;20403;-78
2022/11/24 03:37:06;;;;;;;10.07;6.03;;;;;;;8.22;67.45;100723.69;4980751;28;20153;-78
2022/11/24 03:39:33;;;;;;;7.97;6.03;;;;;;;8.22;66.45;100721.03;4979798;28;20824;-78
2022/11/24 03:42:01;;;;;;;8.40;6.25;;;;;;;8.37;66.15;100728.75;4979165;28;20509;-79
2022/11/24 03:44:34;;;;;;;13.35;7.43;;;;;;;8.46;64.60;100741.31;4980143;28;20650;-76
2022/11/24 03:47:02;;;;;;;12.35;7.25;;;;;;;8.42;64.22;100737.19;4983504;28;20073;-78
2022/11/24 03:49:29;;;;;;;11.48;7.25;;;;;;;8.15;64.02;100693.38;4985181;28;20056;-80
2022/11/24 03:52:03;;;;;;;16.40;6.50;;;;;;;8.52;62.60;100733.75;4984103;28;20153;-78
2022/11/24 03:54:46;;;;;;;10.60;6.85;;;;;;;8.01;63.92;100678.59;4944589;28;20057;-78
2022/11/24 03:57:28;;;;;;;10.82;7.68;;;;;;;8.50;64.74;100737.47;4943885;28;20065;-80
2022/11/24 04:00:07;;;;;;;22.63;8.48;;;;;;;8.41;65.03;100719.66;4945461;28;20518;-78
2022/11/24 04:02:44;;;;;;;14.20;8.18;;;;;;;8.56;64.41;100744.91;4952521;28;20149;-78
2022/11/24 04:05:14;;;;;;;14.90;9.05;;;;;;;8.53;65.02;100735.41;4967195;28;20317;-78
2022/11/24 04:07:48;;;;;;;11.52;8.23;;;;;;;8.54;64.31;100718.59;4967315;28;20490;-79
2022/11/24 04:10:26;;;;;;;12.93;7.63;;;;;;;8.64;65.22;100723.13;4985338;28;20459;-80
2022/11/24 04:13:12;;;;;;;10.70;7.47;;;;;;;8.63;65.28;100732.88;4991039;28;20046;-74
2022/11/24 04:15:41;;;;;;;11.60;7.82;;;;;;;8.88;64.87;100752.13;4984566;28;20050;-77
2022/11/24 04:18:10;;;;;;;12.07;8.27;;;;;;;8.96;65.47;100736.47;4985991;28;20259;-76
2022/11/24 04:20:38;;;;;;;15.50;9.57;;;;;;;9.11;65.80;100732.59;4986505;28;20064;-77
2022/11/24 04:23:11;;;;;;;11.82;7.18;;;;;;;9.48;66.14;100761.38;4996718;28;20045;-78
2022/11/24 04:25:38;;;;;;;15.30;9.45;;;;;;;9.36;64.70;100749.16;4990049;28;20651;-79
2022/11/24 04:28:05;;;;;;;14.82;8.98;;;;;;;8.98;63.65;100692.16;4987563;28;20075;-78
2022/11/24 04:30:43;;;;;;;9.85;7.22;;;;;;;9.16;64.76;100727.75;4990408;28;20194;-79
2022/11/24 04:33:12;;;;;;;16.75;10.75;;;;;;;9.16;63.98;100748.94;5009779;28;20169;-77
2022/11/24 04:35:43;;;;;;;10.52;7.75;;;;;;;8.76;64.31;100667.44;5009280;28;20048;-78
2022/11/24 04:38:29;;;;;;;18.35;10.18;;;;;;;8.97;63.46;100730.22;5007711;28;20052;-78
2022/11/24 04:41:28;;;;;;;16.15;11.98;;;;;;;8.65;64.58;100685.97;5009501;28;20814;-79
2022/11/24 04:44:04;;;;;;;18.98;12.68;;;;;;;8.92;63.64;100724.44;5024833;28;20160;-79
2022/11/24 04:46:33;;;;;;;19.88;10.88;;;;;;;9.24;66.41;100755.44;5007553;28;20511;-79
2022/11/24 04:49:00;;;;;;;15.25;10.55;;;;;;;9.24;65.54;100744.84;5004890;28;20270;-77
2022/11/24 04:51:38;;;;;;;17.90;13.85;;;;;;;9.17;64.77;100757.72;5002947;28;20056;-77
2022/11/24 04:54:09;;;;;;;18.05;12.38;;;;;;;9.15;66.59;100752.56;4989238;28;20432;-79
2022/11/24 04:56:53;;;;;;;20.63;14.25;;;;;;;9.18;66.76;100762.91;5000709;28;20057;-77
2022/11/24 04:59:41;;;;;;;21.67;12.32;;;;;;;9.33;67.75;100760.84;5021140;28;20520;-79
2022/11/24 05:02:15;;;;;;;19.00;11.98;;;;;;;9.36;67.39;100752.63;5006943;28;20052;-79
2022/11/24 05:04:42;;;;;;;24.13;14.40;;;;;;;9.23;67.54;100733.41;5004780;28;20753;-77
2022/11/24 05:07:14;;;;;;;20.10;13.98;;;;;;;9.43;66.01;100771.53;5005235;28;20116;-80
2022/11/24 05:12:34;;;;;;;24.58;15.43;;;;;;;9.49;67.44;100789.59;5024719;28;20603;-78
2022/11/24 05:15:05;;;;;;;22.90;15.05;;;;;;;9.65;68.64;100743.25;5007873;28;20679;-79
2022/11/24 05:17:40;;;;;;;17.75;13.00;;;;;;;9.70;66.45;100767.59;5024038;28;20049;-78
2022/11/24 05:20:07;;;;;;;26.45;17.25;;;;;;;9.50;65.90;100772.72;5041394;28;20162;-78
2022/11/24 05:22:33;;;;;;;25.58;16.75;;;;;;;9.73;66.15;100823.81;5020076;28;20479;-78
2022/11/24 05:25:00;;;;;;;26.23;16.05;;;;;;;9.67;66.76;100832.28;5004916;28;20137;-77
2022/11/24 05:27:27;;;;;;;26.92;18.83;;;;;;;9.39;66.87;100796.56;5005437;28;20144;-76
2022/11/24 05:29:57;;;;;;;16.33;12.63;;;;;;;9.72;68.60;100831.94;5005037;28;20285;-76
2022/11/24 05:32:24;;;;;;;26.92;15.82;;;;;;;9.78;67.23;100815.50;5013687;28;20077;-78
2022/11/24 05:34:54;;;;;;;25.65;17.35;;;;;;;9.59;66.90;100766.66;5025466;28;20049;-78
2022/11/24 05:37:27;;;;;;;26.55;15.05;;;;;;;10.23;67.16;100831.22;5019788;28;20343;-78
2022/11/24 05:39:54;;;;;;;26.40;15.50;;;;;;;10.13;65.42;100827.69;5005385;28;20510;-79
2022/11/24 05:42:39;;;;;;;25.17;14.00;;;;;;;9.59;64.12;100793.16;5011986;28;20049;-80
2022/11/24 05:45:15;;;;;;;20.13;14.00;;;;;;;9.75;65.81;100848.41;5009241;28;20061;-80
2022/11/24 05:47:43;;;;;;;20.75;14.10;;;;;;;9.55;65.59;100850.03;5006680;28;20087;-80
2022/11/24 05:50:17;;;;;;;22.80;14.25;;;;;;;9.37;64.87;100856.84;5004365;28;20527;-78
2022/11/24 05:52:45;;;;;;;21.83;13.75;;;;;;;9.03;65.50;100864.78;5016495;28;20188;-78
2022/11/24 05:55:18;;;;;;;21.15;13.77;;;;;;;8.59;66.47;100839.09;4984955;28;20290;-77
2022/11/24 05:57:45;;;;;;;21.73;12.15;;;;;;;8.61;67.04;100861.84;4976200;28;20045;-76
2022/11/24 06:00:16;;;;;;;18.73;12.93;;;;;;;8.37;67.38;100853.94;4995319;28;20754;-77
2022/11/24 06:02:43;;;;;;;22.55;12.07;;;;;;;8.20;68.23;100855.19;4984520;28;20494;-78
2022/11/24 06:05:14;;;;;;;19.85;13.20;;;;;;;8.32;68.21;100885.19;4985669;28;20053;-78
2022/11/24 06:07:41;;;;;;;14.95;11.38;;;;;;;8.45;69.03;100864.81;4985134;28;20093;-78
2022/11/24 06:10:09;;;;;;;21.17;12.65;;;;;;;8.15;67.99;100825.59;5003188;28;20049;-77
2022/11/24 06:12:36;;;;;;;29.05;12.75;;;;;;;8.45;68.00;100864.00;4977468;28;20045;-79
2022/11/24 06:15:03;;;;;;;24.92;13.23;;;;;;;8.19;66.88;100855.31;4971099;28;20501;-78
2022/11/24 06:17:57;;;;;;;20.15;12.10;;;;;;;8.13;68.16;100885.69;4938329;28;20406;-77
2022/11/24 06:20:27;;;;;;;21.35;12.80;;;;;;;7.87;68.87;100879.72;4972218;28;20168;-78
2022/11/24 06:23:02;;;;;;;21.80;13.05;;;;;;;7.85;69.69;100902.75;4984119;28;20154;-76
2022/11/24 06:25:30;;;;;;;;;;;;;;;7.83;70.31;100909.94;4985482;28;20049;-77
2022/11/24 06:28:02;;;;;;;23.17;13.30;;;;;;;7.73;69.77;100917.69;4986670;28;20160;-76
2022/11/24 06:30:29;;;;;;;27.60;12.15;;;;;;;7.58;69.96;100900.31;4984416;28;20081;-78
2022/11/24 06:32:59;;;;;;;24.42;12.82;;;;;;;7.53;70.29;100908.56;4991573;28;20050;-78
2022/11/24 06:35:26;;;;;;;19.45;11.65;;;;;;;7.34;71.25;100882.59;4983988;28;20201;-78
2022/11/24 06:37:53;;;;;;;19.52;11.55;;;;;;;7.49;71.32;100913.22;4968154;28;20076;-77
2022/11/24 06:40:29;;;;;;;22.65;12.82;;;;;;;7.47;70.55;100919.56;4965833;28;20208;-76
2022/11/24 06:42:59;;;;;;;20.13;12.30;;;;;;;7.40;70.35;100908.59;4983085;28;20054;-78
2022/11/24 06:45:29;;;;;;;18.58;11.32;;;;;;;7.44;70.64;100923.25;4984960;28;20046;-79
2022/11/24 06:47:57;;;;;;;21.58;11.27;;;;;;;7.28;71.14;100904.16;4970501;28;20378;-79
2022/11/24 06:50:25;;;;;;;18.33;10.73;;;;;;;7.41;71.41;100931.41;4971965;28;20487;-78
2022/11/24 06:53:02;;;;;;;15.73;10.65;;;;;;;7.38;71.82;100936.03;4985046;28;20068;-75
2022/11/24 06:55:31;;;;;;;21.25;11.32;;;;;;;7.39;71.70;100938.59;4986118;28;20057;-78
2022/11/24 06:58:10;;;;;;;24.23;11.32;;;;;;;7.18;71.81;100914.50;4982338;28;20517;-79
2022/11/24 07:00:46;;;;;;;19.25;10.80;;;;;;;7.41;72.09;100957.81;4965814;28;20056;-75
2022/11/24 07:03:15;;;;;;;21.92;10.68;;;;;;;7.37;72.06;100956.34;4964488;28;20263;-78
2022/11/24 07:05:44;;;;;;;26.83;9.93;;;;;;;6.88;72.43;100880.53;4964803;28;20062;-78
2022/11/24 07:08:20;;;;;;;18.98;9.77;;;;;;;7.33;72.52;100957.53;4966032;28;20705;-76
2022/11/24 07:10:47;;;;;;;18.67;10.20;;;;;;;7.01;72.04;100901.66;4975580;28;20053;-78
2022/11/24 07:13:14;;;;;;;20.67;10.18;;;;;;;7.51;72.23;100988.88;4984219;28;20131;-78
2022/11/24 07:15:41;;;;;;;29.92;10.77;;;;;;;7.45;71.83;100980.44;4984102;28;20590;-76
2022/11/24 07:18:11;;;;;;;19.20;8.85;;;;;;;7.46;71.74;100976.00;4975979;28;20261;-77
2022/11/24 07:20:38;;;;;;;20.00;9.18;;;;;;;7.46;72.22;100978.63;4968285;28;20057;-78
2022/11/24 07:23:05;;;;;;;13.38;7.80;;;;;;;7.46;71.93;100968.91;4978269;28;20365;-77
2022/11/24 07:25:33;;;;;;;16.00;9.15;;;;;;;7.46;72.16;100968.06;4988951;28;20065;-77
2022/11/24 07:28:01;;;;;;;12.63;8.40;;;;;;;7.64;71.92;101003.75;4991811;28;20181;-76
2022/11/24 07:30:29;;;;;;;19.17;8.15;;;;;;;7.45;72.55;100964.59;5005524;28;20720;-76
2022/11/24 07:33:02;;;;;;;17.23;6.68;;;;;;;7.78;72.11;101008.06;4994046;28;20058;-78
2022/11/24 07:35:32;;;;;;;12.55;6.43;;;;;;;7.65;70.60;100980.84;4967261;28;20064;-78
2022/11/24 07:38:03;;;;;;;16.05;6.53;;;;;;;8.02;71.40;101020.50;4968310;28;20492;-78
2022/11/24 07:40:30;;;;;;;14.65;5.93;;;;;;;7.69;70.46;100966.44;4970340;28;20072;-79
2022/11/24 07:42:59;;;;;;;13.82;5.93;;;;;;;8.14;70.06;101030.22;4987859;28;20196;-79
2022/11/24 07:45:27;;;;;;;12.18;5.88;;;;;;;8.18;69.58;101034.34;4969702;28;20054;-79
2022/11/24 07:47:55;;;;;;;16.20;6.47;;;;;;;8.19;69.79;101045.75;4986757;28;20421;-79
2022/11/24 07:50:22;;;;;;;12.95;5.68;;;;;;;8.09;70.25;101019.94;4967745;28;20041;-78
2022/11/24 07:52:52;;;;;;;11.18;5.53;;;;;;;8.31;70.10;101050.16;4974806;28;20053;-78
2022/11/24 07:55:22;;;;;;;11.23;5.13;;;;;;;8.41;70.24;101050.38;4981984;28;20046;-78
2022/11/24 07:57:49;;;;;;;12.85;4.95;;;;;;;8.44;69.73;101036.91;5002983;28;20156;-78
2022/11/24 08:00:16;;;;;;;11.43;4.85;;;;;;;8.43;69.12;101041.34;4988650;28;20425;-77
2022/11/24 08:02:45;;;;;;;8.05;4.65;;;;;;;8.45;69.26;101039.44;4979145;28;20302;-80
2022/11/24 08:05:11;;;;;;;14.95;5.35;;;;;;;8.50;68.56;101047.06;4966073;28;20560;-80
2022/11/24 08:07:38;;;;;;;9.55;5.35;;;;;;;8.60;67.95;101056.00;4966225;28;20220;-74
2022/11/24 08:10:05;;;;;;;11.90;6.15;;;;;;;8.65;68.23;101037.13;4963767;28;20057;-79
2022/11/24 08:12:32;;;;;;;9.88;5.15;;;;;;;8.75;67.77;101040.78;4965765;28;20050;-79
2022/11/24 08:14:59;;;;;;;6.60;4.50;;;;;;;8.82;69.00;101033.25;4964652;28;20212;-78
2022/11/24 08:17:30;;;;;;;6.75;4.43;;;;;;;9.02;67.84;101042.31;4964078;28;20051;-79
2022/11/24 08:19:56;;;;;;;10.40;9.27;;;;;;;9.19;67.50;101053.31;4963644;28;20373;-79
2022/11/24 08:22:23;;;;;;;13.25;6.40;;;;;;;9.09;67.02;101031.16;4964537;28;20054;-78
2022/11/24 08:24:58;;;;;;;10.93;6.00;;;;;;;9.25;66.38;101049.38;4950966;28;20061;-78
2022/11/24 08:27:32;;;;;;;19.05;5.60;;;;;;;8.25;65.92;100808.09;4959884;28;20069;-79
2022/11/24 08:30:00;;;;;;;13.23;5.63;;;;;;;10.10;66.13;101056.03;4961670;28;20121;-77
2022/11/24 08:32:27;;;;;;;37.60;8.55;;;;;;;10.32;63.85;101066.69;4968407;28;20553;-78
2022/11/24 08:34:57;;;;;;;13.55;5.60;;;;;;;10.45;64.07;101045.28;4960109;28;20109;-80
2022/11/24 08:37:52;;;;;;;13.85;4.80;;;;;;;10.30;58.38;101023.50;4945783;28;20406;-78
2022/11/24 08:40:31;;;;;;;13.18;4.65;;;;;;;10.50;57.84;101068.81;4961593;28;20110;-79
2022/11/24 08:43:02;;;;;;;7.95;4.93;;;;;;;10.57;57.07;101072.66;4958959;28;20050;-79
2022/11/24 08:45:32;;;;;;;10.18;4.47;;;;;;;10.46;59.89;101071.72;4969874;28;20391;-77
2022/11/24 08:48:08;;;;;;;15.23;5.32;;;;;;;10.59;59.82;101062.75;4979420;28;20105;-77
2022/11/24 08:50:49;;;;;;;14.82;5.32;;;;;;;10.52;61.21;101053.59;4980378;28;20050;-75
2022/11/24 08:53:16;;;;;;;17.40;5.80;;;;;;;10.85;60.61;101064.13;4968926;28;20296;-76
2022/11/24 08:55:50;;;;;;;13.32;4.88;;;;;;;10.91;60.42;101052.97;4983602;28;20207;-76
2022/11/24 08:58:29;;;;;;;13.27;4.70;;;;;;;11.00;59.88;101050.53;4983718;28;20054;-77
2022/11/24 09:01:16;;;;;;;11.55;4.20;;;;;;;11.13;57.54;101045.84;4980809;28;20050;-78
2022/11/24 09:03:55;;;;;;;8.57;4.85;;;;;;;11.23;57.00;101046.75;4995659;28;20289;-78
2022/11/24 09:06:32;;;;;;;17.55;4.90;;;;;;;10.96;56.40;100980.03;4997492;28;20552;-78
2022/11/24 09:09:11;;;;;;;11.70;4.65;;;;;;;11.33;55.23;101068.97;4969876;28;20050;-78
2022/11/24 09:11:38;;;;;;;8.02;4.60;;;;;;;11.33;55.88;101058.31;4974029;28;20179;-79
2022/11/24 09:14:09;;;;;;;8.45;4.55;;;;;;;11.39;56.78;101053.47;4985427;28;20092;-78
2022/11/24 09:16:40;;;;;;;8.45;4.38;;;;;;;11.06;57.72;100964.97;4960354;28;20061;-77
2022/11/24 09:19:23;;;;;;;8.07;4.75;;;;;;;11.04;57.11;100950.97;4963299;28;20484;-78
2022/11/24 09:21:56;;;;;;;17.80;5.20;;;;;;;11.63;58.29;101035.41;4964980;28;20103;-78
2022/11/24 09:24:26;;;;;;;10.02;5.35;;;;;;;11.77;55.21;101045.69;4983201;28;20060;-78
2022/11/24 09:26:57;;;;;;;9.23;4.60;;;;;;;11.93;58.88;101055.00;4985133;28;20072;-77
2022/11/24 09:29:28;;;;;;;7.93;4.50;;;;;;;11.91;58.18;101047.16;4986273;28;20057;-79
2022/11/24 09:31:55;;;;;;;14.88;6.18;;;;;;;12.13;57.94;101043.44;4992417;28;20427;-78
2022/11/24 09:34:32;;;;;;;7.40;4.80;;;;;;;12.17;55.85;101058.16;4979255;28;20054;-77
2022/11/24 09:37:00;;;;;;;18.08;5.72;;;;;;;12.31;56.44;101082.75;4983379;28;20050;-78
2022/11/24 09:39:27;;;;;;;10.07;5.55;;;;;;;12.28;53.24;101065.22;4966920;28;20046;-77
2022/11/24 09:42:01;;;;;;;16.15;7.80;;;;;;;12.27;53.97;101062.69;4968351;28;20513;-78
2022/11/24 09:45:14;;;;;;;11.07;5.78;;;;;;;12.42;57.10;101085.28;4967646;28;20659;-77
2022/11/24 09:48:02;;;;;;;11.45;5.55;;;;;;;12.07;56.67;101025.38;4968694;28;20080;-79
2022/11/24 09:50:56;;;;;;;12.93;6.28;;;;;;;12.34;54.54;101087.78;4966004;28;20057;-78
2022/11/24 09:54:01;;;;;;;13.27;7.10;;;;;;;11.27;57.64;100907.34;4996099;28;20547;-78
2022/11/24 09:56:33;;;;;;;11.82;7.20;;;;;;;12.47;56.45;101091.03;4980916;28;20049;-77
2022/11/24 09:59:27;;;;;;;;;;;;;;;12.47;54.40;101085.69;4988714;28;20276;-78
2022/11/24 10:01:55;;;;;;;13.00;5.05;;;;;;;12.52;58.03;101074.63;4965774;28;19968;-80
2022/11/24 10:04:41;;;;;;;15.82;8.73;;;;;;;12.44;53.91;101054.03;4965041;28;20135;-78
2022/11/24 10:07:10;;;;;;;22.80;10.27;;;;;;;12.55;54.96;101077.06;4981917;28;20616;-78
2022/11/24 10:10:09;;;;;;;22.42;12.07;;;;;;;12.58;52.76;101093.59;4966862;28;20061;-77
2022/11/24 10:13:14;;;;;;;21.67;12.25;;;;;;;12.41;53.21;101091.59;4969377;28;20148;-78
2022/11/24 10:15:57;;;;;;;33.50;13.93;;;;;;;12.52;54.66;101102.09;4965102;28;20068;-78
2022/11/24 10:19:22;;;;;;;26.50;13.98;;;;;;;12.46;54.25;101088.53;4968276;28;20058;-79
2022/11/24 10:22:37;;;;;;;23.42;12.68;;;;;;;12.34;52.54;101074.47;4948304;28;20061;-78
2022/11/24 10:25:28;;;;;;;32.38;14.35;;;;;;;12.46;52.67;101094.69;4964536;28;20132;-79
2022/11/24 10:28:03;;;;;;;31.08;15.50;;;;;;;12.47;54.52;101084.88;4965049;28;20058;-79
2022/11/24 10:30:32;;;;;;;28.65;12.10;;;;;;;12.32;55.46;101081.75;4965077;28;20247;-78
2022/11/24 10:33:19;;;;;;;24.88;13.73;;;;;;;12.27;54.72;101083.97;4994012;28;20100;-79
2022/11/24 10:36:12;;;;;;;21.23;12.48;;;;;;;12.26;56.44;101040.56;4979707;28;20435;-78
2022/11/24 10:39:16;;;;;;;31.17;17.15;;;;;;;12.64;54.51;101102.84;4963094;28;20052;-78
2022/11/24 10:41:56;;;;;;;24.88;13.27;;;;;;;12.76;55.34;101106.22;4963300;28;20058;-78
2022/11/24 10:44:24;;;;;;;28.83;16.83;;;;;;;12.70;53.16;101101.47;4960847;28;20465;-78
2022/11/24 10:46:51;;;;;;;28.67;17.50;;;;;;;12.89;51.27;101089.97;4962658;28;20520;-77
2022/11/24 10:49:27;;;;;;;29.02;17.73;;;;;;;12.57;50.94;101037.78;4962535;28;20413;-78
2022/11/24 10:52:15;;;;;;;19.75;12.70;;;;;;;12.91;53.25;101082.66;4969861;28;20524;-77
2022/11/24 10:55:00;;;;;;;31.15;17.98;;;;;;;12.60;52.98;101025.03;4963014;28;20068;-77
2022/11/24 10:57:38;;;;;;;28.73;16.65;;;;;;;13.09;52.34;101091.66;4966817;28;20131;-77
2022/11/24 11:00:30;;;;;;;28.65;13.57;;;;;;;13.21;53.15;101089.69;4972863;28;20112;-78
2022/11/24 11:03:21;;;;;;;33.93;18.90;;;;;;;13.08;52.38;101111.28;4964248;28;20065;-77
2022/11/24 11:06:13;;;;;;;26.23;16.30;;;;;;;12.94;53.79;101093.91;4966187;28;20603;-78
2022/11/24 11:08:55;;;;;;;27.60;15.23;;;;;;;13.12;55.40;101107.38;4985140;28;20514;-77
2022/11/24 11:11:38;;;;;;;31.92;18.30;;;;;;;12.69;54.07;101043.81;4968187;28;20694;-77
2022/11/24 11:14:12;;;;;;;33.47;18.00;;;;;;;12.98;54.37;101119.28;4969406;28;20536;-77
2022/11/24 11:16:59;;;;;;;23.90;14.38;;;;;;;12.76;55.03;101095.56;4993038;28;20047;-76
2022/11/24 11:19:50;;;;;;;28.13;14.65;;;;;;;13.03;56.42;101110.88;4986708;28;20077;-79
2022/11/24 11:22:48;;;;;;;31.02;18.92;;;;;;;12.66;53.98;101068.09;4986323;28;20054;-78
2022/11/24 11:25:49;;;;;;;32.75;18.13;;;;;;;12.46;53.54;101056.56;4970545;28;20064;-79
2022/11/24 11:28:34;;;;;;;26.38;13.85;;;;;;;11.86;55.39;100990.81;4990633;28;20053;-79
2022/11/24 11:31:04;;;;;;;29.10;18.02;;;;;;;12.64;54.61;101096.66;4972368;28;20259;-77
2022/11/24 11:34:23;;;;;;;35.88;17.80;;;;;;;12.76;53.67;101106.22;4999263;28;20301;-77
2022/11/24 11:37:36;;;;;;;26.90;14.98;;;;;;;12.71;55.65;101092.47;4971264;28;20046;-76
2022/11/24 11:40:28;;;;;;;31.55;18.23;;;;;;;12.46;52.96;101052.06;4966974;28;20663;-78
2022/11/24 11:43:31;;;;;;;28.52;17.80;;;;;;;12.54;53.75;101101.97;4988703;28;20448;-77
2022/11/24 11:46:11;;;;;;;28.50;18.02;;;;;;;12.25;53.75;101028.19;4987127;28;20552;-77
2022/11/24 11:48:43;;;;;;;27.70;16.35;;;;;;;12.65;54.46;101093.03;4986200;28;20557;-79
2022/11/24 11:52:00;;;;;;;29.27;17.02;;;;;;;12.65;54.13;101083.22;4988098;28;20076;-78
2022/11/24 11:54:43;;;;;;;27.95;16.98;;;;;;;12.86;52.59;101100.91;4965854;28;20072;-77
2022/11/24 11:57:45;;;;;;;30.67;16.13;;;;;;;12.76;51.87;101100.91;4966470;28;20046;-77
2022/11/24 12:00:22;;;;;;;25.70;15.23;;;;;;;12.78;55.11;101098.94;4966968;28;20057;-77